Time;durP1;ratioP1;P1;durP2;ratioP2;P2;SDS_P1;SDS_P2;PMS_P1;PMS_P2;Temp;Humidity;BMP_temperature;BMP_pressure;BME280_temperature;BME280_humidity;BME280_pressure;Samples;Min_cycle;Max_cycle;Signal;HPM_P1;HPM_P2
2023/10/06 00:03:23;;;;;;;12.03;7.73;;;9.90;99.90;;;;;;8257096;28;20223;-64
2023/10/06 00:07:24;;;;;;;13.07;7.87;;;9.80;99.90;;;;;;8255219;28;20182;-64
2023/10/06 00:11:31;;;;;;;10.93;7.50;;;9.80;99.90;;;;;;8256125;28;20226;-64
2023/10/06 00:15:38;;;;;;;10.30;7.67;;;9.70;99.90;;;;;;8251140;28;20199;-64
2023/10/06 00:19:41;;;;;;;15.07;7.43;;;9.70;99.90;;;;;;8258112;28;20183;-64
2023/10/06 00:23:43;;;;;;;13.93;7.57;;;9.70;99.90;;;;;;8256004;28;20199;-64
2023/10/06 00:27:46;;;;;;;11.47;8.27;;;9.70;99.90;;;;;;8255543;28;20846;-63
2023/10/06 00:31:48;;;;;;;16.03;8.53;;;9.70;99.90;;;;;;8251348;28;20208;-65
2023/10/06 00:35:48;;;;;;;11.80;7.97;;;9.90;99.90;;;;;;8257259;28;20274;-64
2023/10/06 00:39:50;;;;;;;11.43;8.20;;;10.00;99.90;;;;;;8273413;28;20187;-64
2023/10/06 00:43:51;;;;;;;14.13;9.97;;;10.10;99.90;;;;;;8276488;28;20276;-64
2023/10/06 00:47:53;;;;;;;18.47;10.53;;;10.30;99.90;;;;;;8274473;28;20200;-65
2023/10/06 00:51:54;;;;;;;17.10;10.43;;;10.50;99.90;;;;;;8256841;28;20548;-64
2023/10/06 00:55:56;;;;;;;16.30;11.13;;;10.60;99.90;;;;;;8268130;28;20209;-64
2023/10/06 00:59:57;;;;;;;16.77;10.43;;;10.70;99.90;;;;;;8272513;28;20240;-64
2023/10/06 01:04:00;;;;;;;16.50;10.37;;;10.80;99.90;;;;;;8259566;28;20184;-64
2023/10/06 01:08:05;;;;;;;16.10;9.53;;;10.80;99.90;;;;;;8260936;28;20214;-64
2023/10/06 01:12:13;;;;;;;15.63;9.60;;;10.80;99.90;;;;;;8272021;28;20273;-70
2023/10/06 01:16:15;;;;;;;14.67;10.20;;;10.80;99.90;;;;;;8248065;28;20191;-69
2023/10/06 01:20:33;;;;;;;14.93;10.30;;;10.80;99.90;;;;;;8252228;28;20231;-70
2023/10/06 01:24:34;;;;;;;17.33;10.20;;;10.70;99.90;;;;;;8259580;28;20194;-70
2023/10/06 01:28:35;;;;;;;11.30;9.40;;;10.70;99.90;;;;;;8258646;28;20189;-70
2023/10/06 01:32:36;;;;;;;14.07;9.13;;;10.70;99.90;;;;;;8275736;28;20261;-69
2023/10/06 01:36:42;;;;;;;14.37;9.67;;;10.80;99.90;;;;;;8262596;28;20269;-69
2023/10/06 01:40:45;;;;;;;14.50;9.43;;;10.80;99.90;;;;;;8264334;28;20213;-70
2023/10/06 01:44:46;;;;;;;13.47;9.23;;;10.90;99.90;;;;;;8258569;28;20199;-70
2023/10/06 01:48:47;;;;;;;11.53;8.10;;;10.90;99.90;;;;;;8262481;28;20297;-70
2023/10/06 01:52:50;;;;;;;10.17;7.90;;;10.80;99.90;;;;;;8256630;28;20209;-69
2023/10/06 01:56:53;;;;;;;12.67;8.07;;;10.70;99.90;;;;;;8256100;28;20274;-69
2023/10/06 02:00:55;;;;;;;9.80;7.63;;;10.70;99.90;;;;;;8259053;28;20210;-69
2023/10/06 02:04:59;;;;;;;8.73;7.43;;;10.70;99.90;;;;;;8260406;28;20569;-69
2023/10/06 02:09:05;;;;;;;9.00;6.83;;;10.60;99.90;;;;;;8274351;28;20262;-69
2023/10/06 02:13:06;;;;;;;10.93;7.20;;;10.50;99.90;;;;;;8276474;28;20223;-70
2023/10/06 02:17:08;;;;;;;9.63;6.47;;;10.50;99.90;;;;;;8259858;28;20244;-69
2023/10/06 02:21:14;;;;;;;8.00;7.20;;;10.50;99.90;;;;;;8240143;28;20216;-64
2023/10/06 02:25:15;;;;;;;7.60;6.37;;;10.50;99.90;;;;;;8269154;28;20242;-64
2023/10/06 02:29:22;;;;;;;7.67;6.40;;;10.60;99.90;;;;;;8253150;28;20194;-65
2023/10/06 02:33:24;;;;;;;7.90;6.27;;;10.60;99.90;;;;;;8248204;28;20234;-65
2023/10/06 02:37:25;;;;;;;7.90;6.27;;;10.70;99.90;;;;;;8269841;28;20217;-64
2023/10/06 02:41:27;;;;;;;7.60;6.70;;;10.70;99.90;;;;;;8252688;28;20280;-64
2023/10/06 02:45:40;;;;;;;6.97;5.93;;;10.70;99.90;;;;;;8253010;28;20201;-64
2023/10/06 02:49:47;;;;;;;6.93;6.20;;;10.80;99.90;;;;;;8255120;28;20205;-64
2023/10/06 02:53:50;;;;;;;7.60;5.80;;;10.80;99.90;;;;;;8255017;28;20228;-64
2023/10/06 02:57:51;;;;;;;6.70;6.00;;;10.90;99.90;;;;;;8252092;28;20236;-65
2023/10/06 03:02:00;;;;;;;10.97;7.07;;;10.90;99.90;;;;;;8256494;28;20303;-64
2023/10/06 03:06:07;;;;;;;9.63;7.90;;;11.00;99.90;;;;;;8268755;28;20617;-65
2023/10/06 03:10:08;;;;;;;9.90;7.37;;;11.00;99.90;;;;;;8269049;28;20195;-64
2023/10/06 03:14:09;;;;;;;12.97;8.37;;;11.00;99.90;;;;;;8251295;28;20281;-65
2023/10/06 03:18:11;;;;;;;16.13;8.33;;;11.10;99.90;;;;;;8252212;28;20201;-65
2023/10/06 03:22:13;;;;;;;11.97;8.13;;;11.20;99.90;;;;;;8269317;28;20218;-64
2023/10/06 03:26:25;;;;;;;10.27;8.30;;;11.20;99.90;;;;;;8252311;28;20273;-64
2023/10/06 03:30:33;;;;;;;11.20;6.90;;;11.30;99.90;;;;;;8260749;28;20195;-64
2023/10/06 03:34:34;;;;;;;9.50;6.67;;;11.30;99.90;;;;;;8257316;28;20195;-64
2023/10/06 03:38:36;;;;;;;9.27;7.73;;;11.30;99.90;;;;;;8276782;28;20222;-65
2023/10/06 03:42:39;;;;;;;12.33;7.87;;;11.30;99.90;;;;;;8260207;28;20183;-70
2023/10/06 03:46:42;;;;;;;12.27;8.07;;;11.30;99.90;;;;;;8266116;28;20199;-70
2023/10/06 03:50:44;;;;;;;9.23;7.17;;;11.30;99.90;;;;;;8256805;28;20201;-68
2023/10/06 03:54:48;;;;;;;6.47;5.73;;;11.30;99.90;;;;;;8276984;28;20237;-70
2023/10/06 03:58:49;;;;;;;7.27;5.13;;;11.20;99.90;;;;;;8261223;28;20211;-68
2023/10/06 04:02:51;;;;;;;5.97;5.10;;;11.00;99.90;;;;;;8259598;28;20290;-69
2023/10/06 04:06:54;;;;;;;7.30;5.60;;;10.80;99.90;;;;;;8273528;28;20195;-70
2023/10/06 04:10:58;;;;;;;8.60;6.50;;;10.70;99.90;;;;;;8257874;28;20213;-70
2023/10/06 04:14:58;;;;;;;7.83;6.57;;;10.80;99.90;;;;;;8253142;28;20223;-68
2023/10/06 04:19:02;;;;;;;9.77;7.27;;;10.80;99.90;;;;;;8259035;28;20183;-67
2023/10/06 04:23:03;;;;;;;9.40;6.73;;;10.90;99.90;;;;;;8258477;28;20206;-69
2023/10/06 04:27:05;;;;;;;8.40;6.60;;;11.00;99.90;;;;;;8262223;28;20214;-69
2023/10/06 04:31:06;;;;;;;6.23;5.63;;;10.90;99.90;;;;;;8277201;28;20206;-69
2023/10/06 04:35:19;;;;;;;7.43;5.53;;;10.80;99.90;;;;;;8281086;28;20178;-69
2023/10/06 04:39:20;;;;;;;5.80;5.20;;;10.60;99.90;;;;;;8279165;28;20196;-64
2023/10/06 04:43:21;;;;;;;7.97;6.50;;;10.60;99.90;;;;;;8261072;28;20754;-69
2023/10/06 04:47:22;;;;;;;11.07;7.07;;;10.60;99.90;;;;;;8267985;28;20293;-70
2023/10/06 04:51:23;;;;;;;7.67;6.87;;;10.60;99.90;;;;;;8261902;28;20281;-63
2023/10/06 04:55:24;;;;;;;9.23;6.93;;;10.50;99.90;;;;;;8269502;28;20575;-64
2023/10/06 04:59:25;;;;;;;8.30;7.40;;;10.60;99.90;;;;;;8256729;28;20204;-64
2023/10/06 05:03:40;;;;;;;9.33;7.93;;;10.60;99.90;;;;;;8255360;28;20302;-64
2023/10/06 05:07:41;;;;;;;9.10;8.13;;;10.70;99.90;;;;;;8252189;28;20186;-65
2023/10/06 05:11:43;;;;;;;13.80;8.80;;;10.70;99.90;;;;;;8273754;28;20213;-65
2023/10/06 05:15:44;;;;;;;12.53;10.20;;;10.80;99.90;;;;;;8253556;28;20271;-64
2023/10/06 05:19:45;;;;;;;11.67;9.80;;;11.00;99.90;;;;;;8254086;28;20191;-64
2023/10/06 05:23:46;;;;;;;14.80;11.03;;;11.10;99.90;;;;;;8253907;28;20233;-65
2023/10/06 05:27:50;;;;;;;15.53;11.93;;;11.20;99.90;;;;;;8255745;28;20198;-68
2023/10/06 05:31:52;;;;;;;18.87;12.27;;;11.30;99.90;;;;;;8270895;28;20237;-68
2023/10/06 05:35:52;;;;;;;16.30;12.07;;;11.40;99.90;;;;;;8254685;28;20179;-68
2023/10/06 05:39:53;;;;;;;15.67;10.80;;;11.60;99.90;;;;;;8272415;28;20190;-68
2023/10/06 05:43:58;;;;;;;16.17;11.50;;;11.70;99.90;;;;;;8259074;28;20213;-68
2023/10/06 05:47:58;;;;;;;15.20;11.57;;;11.80;99.90;;;;;;8253278;28;20183;-69
2023/10/06 05:51:59;;;;;;;14.97;10.47;;;11.80;99.90;;;;;;8271118;28;20207;-69
2023/10/06 05:56:03;;;;;;;16.77;11.33;;;11.90;99.90;;;;;;8254737;28;20186;-69
2023/10/06 06:00:05;;;;;;;12.73;9.67;;;12.00;99.90;;;;;;8255129;28;20235;-69
2023/10/06 06:04:09;;;;;;;16.07;9.40;;;12.10;99.90;;;;;;8252511;28;20187;-69
2023/10/06 06:08:10;;;;;;;14.13;10.00;;;12.20;99.90;;;;;;8253237;28;20191;-69
2023/10/06 06:12:12;;;;;;;13.70;9.97;;;12.30;99.90;;;;;;8253067;28;20301;-71
2023/10/06 06:16:13;;;;;;;15.63;8.90;;;12.40;99.90;;;;;;8253896;28;20290;-73
2023/10/06 06:20:14;;;;;;;12.27;8.57;;;12.50;99.90;;;;;;8255148;28;20290;-73
2023/10/06 06:24:20;;;;;;;15.57;8.97;;;12.60;99.90;;;;;;8256313;28;20218;-71
2023/10/06 06:28:21;;;;;;;12.30;8.83;;;12.70;99.90;;;;;;8273658;28;20384;-72
2023/10/06 06:32:25;;;;;;;11.77;7.80;;;12.80;99.90;;;;;;8259897;28;20218;-70
2023/10/06 06:36:26;;;;;;;8.83;6.83;;;12.70;99.90;;;;;;8269918;28;20251;-72
2023/10/06 06:40:31;;;;;;;13.37;7.60;;;12.60;99.90;;;;;;8253999;28;20631;-74
2023/10/06 06:44:34;;;;;;;11.90;7.57;;;12.80;99.90;;;;;;8256374;28;20360;-72
2023/10/06 06:48:35;;;;;;;9.10;6.97;;;13.10;99.90;;;;;;8256412;28;20190;-70
2023/10/06 06:52:38;;;;;;;11.50;6.83;;;13.50;99.90;;;;;;8251608;28;20207;-71
2023/10/06 06:56:38;;;;;;;10.90;6.93;;;13.80;99.90;;;;;;8270246;28;20241;-72
2023/10/06 07:00:40;;;;;;;10.93;6.20;;;14.20;99.90;;;;;;8251691;28;20249;-75
2023/10/06 07:04:40;;;;;;;11.57;5.93;;;14.40;99.90;;;;;;8276201;28;20215;-72
2023/10/06 07:08:42;;;;;;;8.27;5.27;;;14.40;99.90;;;;;;8257984;28;20191;-72
2023/10/06 07:12:44;;;;;;;8.17;4.97;;;14.40;99.90;;;;;;8261084;28;20218;-73
2023/10/06 07:16:47;;;;;;;7.73;4.77;;;14.40;99.90;;;;;;8275110;28;20211;-72
2023/10/06 07:20:49;;;;;;;7.30;4.83;;;14.40;99.90;;;;;;8275800;28;20187;-73
2023/10/06 07:24:55;;;;;;;8.23;5.33;;;14.40;99.90;;;;;;8260473;28;20191;-72
2023/10/06 07:28:56;;;;;;;10.33;4.80;;;14.40;99.90;;;;;;8257608;28;20179;-73
2023/10/06 07:32:57;;;;;;;5.40;4.10;;;14.40;99.90;;;;;;8258486;28;20272;-70
2023/10/06 07:37:01;;;;;;;9.93;3.87;;;14.50;99.90;;;;;;8262329;28;20199;-70
2023/10/06 07:41:03;;;;;;;6.20;4.00;;;14.60;99.90;;;;;;8277191;28;20270;-70
2023/10/06 07:45:05;;;;;;;6.63;3.83;;;14.70;99.90;;;;;;8258460;28;20489;-72
2023/10/06 07:49:06;;;;;;;6.87;3.90;;;14.90;99.90;;;;;;8256162;28;20191;-72
2023/10/06 07:53:07;;;;;;;7.73;3.93;;;15.00;99.90;;;;;;8257436;28;20203;-71
2023/10/06 07:57:10;;;;;;;5.83;4.20;;;15.10;99.90;;;;;;8276719;28;20248;-69
2023/10/06 08:01:12;;;;;;;6.37;3.60;;;15.20;99.90;;;;;;8273798;28;20238;-69
2023/10/06 08:05:17;;;;;;;6.27;3.87;;;15.40;99.90;;;;;;8275389;28;20304;-70
2023/10/06 08:09:19;;;;;;;5.73;3.97;;;15.50;99.90;;;;;;8275090;28;20396;-72
2023/10/06 08:13:20;;;;;;;6.23;3.50;;;15.50;99.90;;;;;;8257780;28;20492;-72
2023/10/06 08:17:21;;;;;;;12.37;4.60;;;15.60;99.90;;;;;;8258930;28;20264;-70
2023/10/06 08:21:22;;;;;;;8.03;4.77;;;15.60;1.00;;;;;;8259478;28;20700;-74
2023/10/06 08:25:24;;;;;;;5.97;4.17;;;15.60;99.90;;;;;;8257215;28;20277;-69
2023/10/06 08:29:25;;;;;;;8.03;3.87;;;15.60;99.90;;;;;;8260361;28;20218;-69
2023/10/06 08:33:27;;;;;;;6.87;3.97;;;15.70;1.00;;;;;;8255102;28;20206;-71
2023/10/06 08:37:29;;;;;;;10.27;4.80;;;15.90;99.90;;;;;;8259443;28;20183;-69
2023/10/06 08:41:36;;;;;;;7.80;4.00;;;16.10;99.90;;;;;;8274113;28;20280;-73
2023/10/06 08:45:42;;;;;;;7.10;3.50;;;16.10;99.90;;;;;;8272429;28;20211;-69
2023/10/06 08:49:44;;;;;;;6.07;3.20;;;16.30;99.90;;;;;;8276681;28;20191;-71
2023/10/06 08:53:49;;;;;;;6.67;3.47;;;16.50;99.90;;;;;;8256327;28;20222;-74
2023/10/06 08:57:51;;;;;;;7.90;3.83;;;16.70;99.90;;;;;;8254432;28;20194;-72
2023/10/06 09:01:53;;;;;;;5.53;3.13;;;16.80;99.90;;;;;;8270224;28;20293;-71
2023/10/06 09:05:53;;;;;;;6.43;3.10;;;17.10;99.90;;;;;;8255037;28;20187;-68
2023/10/06 09:09:54;;;;;;;6.37;2.97;;;17.40;93.20;;;;;;8257081;28;20465;-71
2023/10/06 09:14:08;;;;;;;6.03;2.80;;;17.40;65.40;;;;;;8273473;28;20207;-70
2023/10/06 09:18:24;;;;;;;7.97;2.70;;;17.60;42.90;;;;;;8255184;28;20191;-70
2023/10/06 09:22:29;;;;;;;4.70;2.40;;;17.50;30.00;;;;;;8249895;28;20200;-70
2023/10/06 09:26:30;;;;;;;5.57;2.40;;;17.40;23.70;;;;;;8254903;28;20233;-68
2023/10/06 09:30:50;;;;;;;5.57;2.50;;;17.60;16.10;;;;;;8272182;28;20272;-72
2023/10/06 09:34:53;;;;;;;5.73;2.63;;;17.80;4.40;;;;;;8273411;28;20187;-73
2023/10/06 09:39:14;;;;;;;4.50;2.90;;;17.90;1.00;;;;;;8256877;28;20194;-72
2023/10/06 09:43:16;;;;;;;6.80;2.83;;;18.40;1.00;;;;;;8253770;28;20187;-70
2023/10/06 09:47:19;;;;;;;5.70;2.33;;;18.90;1.00;;;;;;8253284;28;20258;-70
2023/10/06 09:51:23;;;;;;;6.00;2.40;;;19.00;1.00;;;;;;8255034;28;20241;-72
2023/10/06 09:55:25;;;;;;;3.93;2.33;;;19.00;1.00;;;;;;8260145;28;20191;-73
2023/10/06 09:59:26;;;;;;;7.00;3.03;;;19.00;1.00;;;;;;8259552;28;20286;-75
2023/10/06 10:03:28;;;;;;;4.33;2.70;;;19.00;1.00;;;;;;8255013;28;20195;-71
2023/10/06 10:07:30;;;;;;;4.43;2.47;;;19.10;1.00;;;;;;8256099;28;20282;-70
2023/10/06 10:11:39;;;;;;;11.07;3.07;;;19.30;1.00;;;;;;8271257;28;20640;-70
2023/10/06 10:15:45;;;;;;;4.90;2.30;;;18.90;1.00;;;;;;8251493;28;20187;-70
2023/10/06 10:19:47;;;;;;;6.20;2.77;;;18.80;1.00;;;;;;8271918;28;20257;-72
2023/10/06 10:23:48;;;;;;;5.97;2.50;;;18.80;1.00;;;;;;8273564;28;20218;-69
2023/10/06 10:28:27;;;;;;;10.10;2.70;;;18.90;1.00;;;;;;8256617;28;20697;-72
2023/10/06 10:32:29;;;;;;;6.07;2.40;;;19.00;1.00;;;;;;8227249;28;20215;-74
2023/10/06 10:36:31;;;;;;;5.13;2.30;;;19.10;1.00;;;;;;8277921;28;20182;-72
2023/10/06 10:40:46;;;;;;;7.57;2.77;;;19.50;1.00;;;;;;8266263;28;20187;-73
2023/10/06 10:44:48;;;;;;;6.67;2.23;;;19.50;1.00;;;;;;8260296;28;20207;-72
2023/10/06 10:49:03;;;;;;;4.47;2.37;;;19.20;1.00;;;;;;8261205;28;20234;-71
2023/10/06 10:53:04;;;;;;;4.57;2.50;;;19.30;1.00;;;;;;8260116;28;20214;-67
2023/10/06 10:57:06;;;;;;;5.77;2.50;;;19.70;1.00;;;;;;8279261;28;20187;-73
2023/10/06 11:01:31;;;;;;;6.87;2.47;;;20.00;1.00;;;;;;8260807;28;20202;-70
2023/10/06 11:05:33;;;;;;;5.77;2.27;;;20.10;1.00;;;;;;8279140;28;20409;-72
2023/10/06 11:09:37;;;;;;;6.63;2.60;;;20.30;1.00;;;;;;8261248;28;20253;-73
2023/10/06 11:13:39;;;;;;;4.77;2.40;;;20.40;1.00;;;;;;8259753;28;20237;-72
2023/10/06 11:17:44;;;;;;;4.80;2.10;;;20.50;1.00;;;;;;8261152;28;20214;-70
2023/10/06 11:21:47;;;;;;;5.60;2.47;;;20.40;1.00;;;;;;8275530;28;20210;-72
2023/10/06 11:25:49;;;;;;;8.17;2.60;;;19.80;1.00;;;;;;8274637;28;20207;-72
2023/10/06 11:29:53;;;;;;;6.50;2.17;;;19.50;1.00;;;;;;8262446;28;20187;-67
2023/10/06 11:33:55;;;;;;;4.53;1.97;;;19.70;1.00;;;;;;8275037;28;20263;-72
2023/10/06 11:37:56;;;;;;;4.87;1.90;;;19.60;1.00;;;;;;8259955;28;20223;-70
2023/10/06 11:42:35;;;;;;;4.53;2.20;;;19.60;1.00;;;;;;8258319;28;20199;-71
2023/10/06 11:46:52;;;;;;;3.97;1.80;;;19.70;1.00;;;;;;8161197;28;20337;-73
2023/10/06 11:51:06;;;;;;;6.20;2.40;;;20.20;1.00;;;;;;8273958;28;20215;-74
2023/10/06 11:55:11;;;;;;;3.73;1.73;;;20.70;1.00;;;;;;8254621;28;20208;-70
2023/10/06 11:59:19;;;;;;;4.83;2.23;;;20.90;1.00;;;;;;8273623;28;20207;-71
2023/10/06 12:03:59;;;;;;;3.23;2.10;;;20.90;1.00;;;;;;8259129;28;20473;-70
2023/10/06 12:08:03;;;;;;;2.40;1.77;;;20.80;1.00;;;;;;8278038;28;20184;-73
2023/10/06 12:12:05;;;;;;;4.57;1.50;;;21.00;1.00;;;;;;8270229;28;20211;-70
2023/10/06 12:16:13;;;;;;;7.23;1.80;;;20.90;1.00;;;;;;8276714;28;20232;-74
2023/10/06 12:20:18;;;;;;;4.10;1.83;;;21.00;1.00;;;;;;8260065;28;20195;-72
2023/10/06 12:24:22;;;;;;;4.03;2.00;;;20.70;1.00;;;;;;8258124;28;20205;-71
2023/10/06 12:28:23;;;;;;;4.07;2.27;;;20.70;1.00;;;;;;8257736;28;20210;-74
2023/10/06 12:32:23;;;;;;;3.53;1.37;;;20.70;1.00;;;;;;8261570;28;20206;-69
2023/10/06 12:36:24;;;;;;;2.57;1.53;;;20.80;1.00;;;;;;8272172;28;20179;-70
2023/10/06 12:40:26;;;;;;;3.57;1.83;;;20.80;1.00;;;;;;8257217;28;20214;-70
2023/10/06 12:44:27;;;;;;;2.93;1.50;;;21.00;1.00;;;;;;8273499;28;20382;-71
2023/10/06 12:48:30;;;;;;;2.77;1.50;;;21.00;1.00;;;;;;8261354;28;20184;-73
2023/10/06 12:52:37;;;;;;;2.83;1.70;;;20.90;1.00;;;;;;8256552;28;20250;-68
2023/10/06 12:56:38;;;;;;;3.43;1.70;;;20.80;1.00;;;;;;8274559;28;20187;-70
2023/10/06 13:00:39;;;;;;;2.50;1.77;;;20.70;1.00;;;;;;8257987;28;20259;-70
2023/10/06 13:04:40;;;;;;;3.00;1.63;;;20.60;1.00;;;;;;8274409;28;20197;-71
2023/10/06 13:08:40;;;;;;;4.70;1.90;;;20.80;1.00;;;;;;8275204;28;20518;-67
2023/10/06 13:12:42;;;;;;;3.93;1.60;;;20.70;1.00;;;;;;8263832;28;20229;-69
2023/10/06 13:16:46;;;;;;;2.23;1.27;;;20.70;1.00;;;;;;8256545;28;20194;-69
2023/10/06 13:20:47;;;;;;;2.73;1.53;;;20.60;1.00;;;;;;8253883;28;20190;-70
2023/10/06 13:24:48;;;;;;;3.47;1.80;;;20.40;1.00;;;;;;8261103;28;20230;-72
2023/10/06 13:28:50;;;;;;;3.47;1.97;;;20.20;1.00;;;;;;8275046;28;20191;-72
2023/10/06 13:32:53;;;;;;;3.37;2.20;;;19.90;1.00;;;;;;8253408;28;20222;-72
2023/10/06 13:36:54;;;;;;;4.50;2.13;;;19.80;1.00;;;;;;8255099;28;20206;-72
2023/10/06 13:40:55;;;;;;;4.57;2.20;;;19.70;1.00;;;;;;8269653;28;20191;-73
2023/10/06 13:44:57;;;;;;;4.47;2.20;;;19.60;1.00;;;;;;8271545;28;20222;-70
2023/10/06 13:48:58;;;;;;;5.83;1.90;;;19.70;1.00;;;;;;8255990;28;20194;-70
2023/10/06 13:52:59;;;;;;;4.63;2.20;;;19.70;1.00;;;;;;8267053;28;20312;-73
2023/10/06 13:57:01;;;;;;;5.17;1.90;;;19.80;1.00;;;;;;8256312;28;20221;-72
2023/10/06 14:01:09;;;;;;;3.43;1.93;;;19.90;1.00;;;;;;8256008;28;20495;-73
2023/10/06 14:05:11;;;;;;;2.73;1.57;;;19.90;1.00;;;;;;8256772;28;20183;-70
2023/10/06 14:09:19;;;;;;;2.67;1.57;;;20.00;1.00;;;;;;8271368;28;20440;-71
2023/10/06 14:13:33;;;;;;;3.87;2.17;;;20.10;1.00;;;;;;8252471;28;20226;-68
2023/10/06 14:17:34;;;;;;;2.70;1.70;;;20.00;1.00;;;;;;8259512;28;20290;-69
2023/10/06 14:21:35;;;;;;;2.93;1.77;;;19.90;1.00;;;;;;8260342;28;20207;-73
2023/10/06 14:25:39;;;;;;;3.70;1.90;;;19.90;1.00;;;;;;8256151;28;20211;-69
2023/10/06 14:29:44;;;;;;;3.10;2.10;;;19.90;1.00;;;;;;8253307;28;20191;-73
2023/10/06 14:33:47;;;;;;;4.80;2.27;;;19.50;1.00;;;;;;8271303;28;20218;-72
2023/10/06 14:46:31;;;;;;;4.37;2.33;;;19.10;1.00;;;;;;8272821;28;20218;-69
2023/10/06 14:50:32;;;;;;;6.67;2.50;;;19.00;1.00;;;;;;8253913;28;20478;-69
2023/10/06 14:54:33;;;;;;;5.40;2.63;;;18.80;1.00;;;;;;8256377;28;20289;-68
2023/10/06 14:58:34;;;;;;;5.63;2.50;;;18.80;1.00;;;;;;8259833;28;20184;-71
2023/10/06 15:02:35;;;;;;;3.73;2.40;;;18.70;1.00;;;;;;8249419;28;20392;-68
2023/10/06 15:06:39;;;;;;;3.67;2.10;;;18.60;1.00;;;;;;8273982;28;20187;-70
2023/10/06 15:10:43;;;;;;;5.70;2.90;;;18.50;1.00;;;;;;8272203;28;20470;-71
2023/10/06 15:14:44;;;;;;;6.80;2.70;;;18.40;1.00;;;;;;8251676;28;20215;-74
2023/10/06 15:18:47;;;;;;;3.40;2.07;;;18.30;1.00;;;;;;8258059;28;20214;-74
2023/10/06 15:22:51;;;;;;;6.00;2.63;;;18.30;1.00;;;;;;8257998;28;20203;-72
2023/10/06 15:26:52;;;;;;;4.00;2.17;;;18.30;1.00;;;;;;8258418;28;20253;-72
2023/10/06 15:30:56;;;;;;;6.43;2.73;;;18.20;1.00;;;;;;8262125;28;20195;-70
2023/10/06 15:35:00;;;;;;;6.33;2.70;;;18.00;1.00;;;;;;8258224;28;20215;-69
2023/10/06 15:39:08;;;;;;;4.00;2.37;;;17.90;1.00;;;;;;8265076;28;20190;-69
2023/10/06 15:43:08;;;;;;;3.97;2.40;;;17.70;1.00;;;;;;8274725;28;20286;-70
2023/10/06 15:47:11;;;;;;;4.07;2.30;;;17.60;1.00;;;;;;8254198;28;20191;-68
2023/10/06 15:51:18;;;;;;;5.60;2.63;;;17.40;1.00;;;;;;8258819;28;20183;-69
2023/10/06 15:55:19;;;;;;;5.03;2.40;;;17.30;1.00;;;;;;8273425;28;20245;-68
2023/10/06 15:59:24;;;;;;;3.40;2.20;;;17.10;1.00;;;;;;8269639;28;20203;-70
2023/10/06 16:03:25;;;;;;;3.43;2.10;;;17.00;1.00;;;;;;8272018;28;20183;-69
2023/10/06 16:07:26;;;;;;;9.60;2.83;;;16.90;1.00;;;;;;8274164;28;20202;-69
2023/10/06 16:11:26;;;;;;;5.23;2.40;;;16.80;1.00;;;;;;8274696;28;20226;-69
2023/10/06 16:15:28;;;;;;;5.30;2.67;;;16.80;1.00;;;;;;8259425;28;20183;-68
2023/10/06 16:19:29;;;;;;;4.43;2.77;;;16.70;1.00;;;;;;8256483;28;20195;-68
2023/10/06 16:23:29;;;;;;;6.20;2.80;;;16.70;1.00;;;;;;8272816;28;20199;-72
2023/10/06 16:27:30;;;;;;;5.03;2.57;;;16.70;1.00;;;;;;8257065;28;20191;-69
2023/10/06 16:31:32;;;;;;;7.27;3.20;;;16.60;1.00;;;;;;8256231;28;20207;-69
2023/10/06 16:35:40;;;;;;;6.53;3.10;;;16.60;1.00;;;;;;8259136;28;20183;-69
2023/10/06 16:39:43;;;;;;;5.17;3.07;;;16.60;1.00;;;;;;8266467;28;20188;-67
2023/10/06 16:43:44;;;;;;;6.67;3.00;;;16.50;1.00;;;;;;8262027;28;20218;-66
2023/10/06 16:47:45;;;;;;;6.83;3.63;;;16.50;1.00;;;;;;8254286;28;20183;-65
2023/10/06 16:51:51;;;;;;;5.40;2.63;;;16.50;1.00;;;;;;8264926;28;20246;-67
2023/10/06 16:55:58;;;;;;;6.53;3.10;;;16.50;1.00;;;;;;8289871;28;20210;-71
2023/10/06 17:00:00;;;;;;;5.97;3.40;;;16.40;1.00;;;;;;8291277;28;20194;-66
2023/10/06 17:04:04;;;;;;;7.40;3.83;;;16.40;1.00;;;;;;8269284;28;20187;-66
2023/10/06 17:08:05;;;;;;;9.13;3.73;;;16.40;1.00;;;;;;8272510;28;20218;-64
2023/10/06 17:12:09;;;;;;;6.00;3.57;;;16.40;1.00;;;;;;8252795;28;20214;-66
2023/10/06 17:16:13;;;;;;;6.53;3.83;;;16.30;1.00;;;;;;8261921;28;20238;-66
2023/10/06 17:20:14;;;;;;;8.93;3.80;;;16.20;1.00;;;;;;8255757;28;20180;-65
2023/10/06 17:24:16;;;;;;;7.03;4.00;;;16.10;1.00;;;;;;8256599;28;20226;-66
2023/10/06 17:28:17;;;;;;;7.80;3.80;;;16.10;1.00;;;;;;8256102;28;20203;-66
2023/10/06 17:32:18;;;;;;;7.03;3.73;;;16.00;1.00;;;;;;8255654;28;20211;-67
2023/10/06 17:36:19;;;;;;;7.53;4.00;;;16.00;1.00;;;;;;8252172;28;20503;-66
2023/10/06 17:40:20;;;;;;;6.90;4.20;;;16.00;1.00;;;;;;8256898;28;20230;-66
2023/10/06 17:44:21;;;;;;;8.77;4.07;;;16.00;1.00;;;;;;8260670;28;20187;-66
2023/10/06 17:48:23;;;;;;;7.50;3.63;;;15.90;1.00;;;;;;8255016;28;20223;-65
2023/10/06 17:52:25;;;;;;;7.67;4.17;;;15.80;1.00;;;;;;8272293;28;20210;-65
2023/10/06 17:56:29;;;;;;;10.97;3.87;;;15.80;1.00;;;;;;8271890;28;20190;-66
2023/10/06 18:00:31;;;;;;;7.93;4.17;;;15.70;1.00;;;;;;8271639;28;20200;-66
2023/10/06 18:04:33;;;;;;;6.43;3.93;;;15.70;1.00;;;;;;8268859;28;20195;-66
2023/10/06 18:08:33;;;;;;;5.43;3.80;;;15.70;1.00;;;;;;8254395;28;20203;-67
2023/10/06 18:12:36;;;;;;;6.60;3.90;;;15.60;1.00;;;;;;8258453;28;20290;-66
2023/10/06 18:16:37;;;;;;;8.40;4.00;;;15.60;1.00;;;;;;8260410;28;20187;-66
2023/10/06 18:20:42;;;;;;;8.93;3.97;;;15.50;1.00;;;;;;8257949;28;20199;-70
2023/10/06 18:24:43;;;;;;;6.87;3.83;;;15.50;1.00;;;;;;8274557;28;20325;-71
2023/10/06 18:28:45;;;;;;;8.40;4.13;;;15.50;1.00;;;;;;8275029;28;20187;-70
2023/10/06 18:32:47;;;;;;;7.00;3.70;;;15.40;1.00;;;;;;8264038;28;20302;-72
2023/10/06 18:36:49;;;;;;;9.20;4.20;;;15.40;1.00;;;;;;8245692;28;20187;-71
2023/10/06 18:40:57;;;;;;;8.77;4.30;;;15.30;1.00;;;;;;8245401;28;20172;-71
2023/10/06 18:44:58;;;;;;;7.43;4.17;;;15.20;1.00;;;;;;8251657;28;20202;-71
2023/10/06 18:48:59;;;;;;;6.83;3.63;;;15.20;1.00;;;;;;8278074;28;20186;-70
2023/10/06 18:53:03;;;;;;;6.40;4.00;;;15.20;1.00;;;;;;8274894;28;20218;-71
2023/10/06 18:57:09;;;;;;;5.33;3.57;;;15.10;1.00;;;;;;8279212;28;20187;-71
2023/10/06 19:01:10;;;;;;;8.47;4.17;;;15.10;1.00;;;;;;8284458;28;20210;-71
2023/10/06 19:05:14;;;;;;;6.50;3.90;;;15.00;1.00;;;;;;8301838;28;20289;-71
2023/10/06 19:09:17;;;;;;;6.50;3.43;;;15.00;1.00;;;;;;8312151;28;20163;-72
2023/10/06 19:13:19;;;;;;;6.40;3.73;;;15.00;1.00;;;;;;8313882;28;20210;-71
2023/10/06 19:17:27;;;;;;;7.33;3.80;;;15.00;1.00;;;;;;8310920;28;20186;-70
2023/10/06 19:21:28;;;;;;;8.00;3.80;;;15.00;1.00;;;;;;8286161;28;20194;-70
2023/10/06 19:25:29;;;;;;;5.37;3.63;;;15.00;1.00;;;;;;8274739;28;20191;-70
2023/10/06 19:29:33;;;;;;;6.73;4.00;;;15.00;1.00;;;;;;8267624;28;20187;-68
2023/10/06 19:33:34;;;;;;;7.43;4.40;;;15.10;1.00;;;;;;8263674;28;20218;-66
2023/10/06 19:37:38;;;;;;;9.87;4.67;;;15.10;1.00;;;;;;8258729;28;20211;-66
2023/10/06 19:41:42;;;;;;;7.20;3.57;;;15.00;1.00;;;;;;8260919;28;20198;-67
2023/10/06 19:45:46;;;;;;;5.47;3.40;;;15.10;1.00;;;;;;8275353;28;20181;-66
2023/10/06 19:49:47;;;;;;;6.40;3.70;;;15.20;1.00;;;;;;8257156;28;20279;-65
2023/10/06 19:53:49;;;;;;;7.30;3.50;;;15.20;1.00;;;;;;8257737;28;20219;-66
2023/10/06 19:57:50;;;;;;;5.67;3.00;;;15.30;1.00;;;;;;8273739;28;20246;-65
2023/10/06 20:01:51;;;;;;;6.57;3.53;;;15.40;1.00;;;;;;8260878;28;20199;-67
2023/10/06 20:05:53;;;;;;;5.70;3.03;;;15.50;1.00;;;;;;8278523;28;20221;-66
2023/10/06 20:09:54;;;;;;;6.90;3.20;;;15.50;1.00;;;;;;8256173;28;20241;-67
2023/10/06 20:13:55;;;;;;;6.10;2.87;;;15.60;1.00;;;;;;8273034;28;20315;-66
2023/10/06 20:17:56;;;;;;;7.10;3.17;;;15.70;1.00;;;;;;8277977;28;20182;-66
2023/10/06 20:21:57;;;;;;;4.23;2.67;;;15.70;1.00;;;;;;8257284;28;20253;-66
2023/10/06 20:25:57;;;;;;;5.30;3.00;;;15.70;1.00;;;;;;8255150;28;20187;-66
2023/10/06 20:29:58;;;;;;;7.03;3.10;;;15.70;1.00;;;;;;8255311;28;20183;-66
2023/10/06 20:34:01;;;;;;;5.23;2.80;;;15.60;1.00;;;;;;8274381;28;20273;-66
2023/10/06 20:38:03;;;;;;;5.87;2.93;;;15.60;1.00;;;;;;8256685;28;20195;-65
2023/10/06 20:42:04;;;;;;;5.67;3.07;;;15.50;1.00;;;;;;8256091;28;20184;-65
2023/10/06 20:46:05;;;;;;;8.13;2.93;;;15.40;1.00;;;;;;8256610;28;20187;-68
2023/10/06 20:50:09;;;;;;;5.63;2.93;;;15.40;1.00;;;;;;8254732;28;20294;-68
2023/10/06 20:54:10;;;;;;;5.97;3.17;;;15.40;1.00;;;;;;8256250;28;20214;-66
2023/10/06 20:58:11;;;;;;;4.30;3.00;;;15.40;1.00;;;;;;8253815;28;20183;-65
2023/10/06 21:02:14;;;;;;;4.93;3.13;;;15.40;1.00;;;;;;8274000;28;20265;-64
2023/10/06 21:06:15;;;;;;;5.00;2.57;;;15.40;1.00;;;;;;8260291;28;20202;-63
2023/10/06 21:10:18;;;;;;;5.60;2.90;;;15.40;1.00;;;;;;8257537;28;20197;-64
2023/10/06 21:14:18;;;;;;;6.30;2.80;;;15.50;1.00;;;;;;8258523;28;20313;-63
2023/10/06 21:18:19;;;;;;;5.80;3.07;;;15.40;1.00;;;;;;8272553;28;20184;-65
2023/10/06 21:22:20;;;;;;;6.70;2.83;;;15.40;1.00;;;;;;8272229;28;20298;-64